sensor_id;sensor_type;location;lat;lon;timestamp;P1;durP1;ratioP1;P2;durP2;ratioP2
62463;SDS011;48512;48.552;9.380;2024-02-26T00:00:47;1.30;;;1.20;;
62463;SDS011;48512;48.552;9.380;2024-02-26T00:03:13;1.73;;;1.15;;
62463;SDS011;48512;48.552;9.380;2024-02-26T00:05:40;2.28;;;0.98;;
62463;SDS011;48512;48.552;9.380;2024-02-26T00:08:06;1.02;;;0.90;;
62463;SDS011;48512;48.552;9.380;2024-02-26T00:10:32;2.95;;;1.20;;
62463;SDS011;48512;48.552;9.380;2024-02-26T00:12:58;1.55;;;1.02;;
62463;SDS011;48512;48.552;9.380;2024-02-26T00:15:24;2.10;;;1.13;;
62463;SDS011;48512;48.552;9.380;2024-02-26T00:17:50;1.80;;;1.30;;
62463;SDS011;48512;48.552;9.380;2024-02-26T00:20:20;1.48;;;1.05;;
62463;SDS011;48512;48.552;9.380;2024-02-26T00:22:46;3.58;;;1.25;;
62463;SDS011;48512;48.552;9.380;2024-02-26T00:25:12;1.15;;;1.02;;
62463;SDS011;48512;48.552;9.380;2024-02-26T00:27:38;1.38;;;0.90;;
62463;SDS011;48512;48.552;9.380;2024-02-26T00:30:06;1.20;;;1.10;;
62463;SDS011;48512;48.552;9.380;2024-02-26T00:32:32;2.17;;;1.40;;
62463;SDS011;48512;48.552;9.380;2024-02-26T00:34:58;1.13;;;1.02;;
62463;SDS011;48512;48.552;9.380;2024-02-26T00:37:24;1.52;;;0.82;;
62463;SDS011;48512;48.552;9.380;2024-02-26T00:39:51;1.35;;;1.13;;
62463;SDS011;48512;48.552;9.380;2024-02-26T00:42:18;1.35;;;1.10;;
62463;SDS011;48512;48.552;9.380;2024-02-26T00:44:44;1.60;;;0.90;;
62463;SDS011;48512;48.552;9.380;2024-02-26T00:47:11;1.30;;;1.17;;
62463;SDS011;48512;48.552;9.380;2024-02-26T00:49:37;1.30;;;1.00;;
62463;SDS011;48512;48.552;9.380;2024-02-26T00:52:03;1.38;;;1.00;;
62463;SDS011;48512;48.552;9.380;2024-02-26T00:54:30;1.20;;;1.10;;
62463;SDS011;48512;48.552;9.380;2024-02-26T00:56:56;1.23;;;1.10;;
62463;SDS011;48512;48.552;9.380;2024-02-26T00:59:22;1.58;;;1.00;;
62463;SDS011;48512;48.552;9.380;2024-02-26T01:01:48;1.17;;;0.98;;
62463;SDS011;48512;48.552;9.380;2024-02-26T01:04:14;1.35;;;1.08;;
62463;SDS011;48512;48.552;9.380;2024-02-26T01:06:40;1.20;;;1.10;;
62463;SDS011;48512;48.552;9.380;2024-02-26T01:09:06;1.10;;;1.00;;
62463;SDS011;48512;48.552;9.380;2024-02-26T01:11:33;1.65;;;0.90;;
62463;SDS011;48512;48.552;9.380;2024-02-26T01:14:00;1.33;;;1.10;;
62463;SDS011;48512;48.552;9.380;2024-02-26T01:16:26;2.08;;;1.20;;
62463;SDS011;48512;48.552;9.380;2024-02-26T01:18:55;1.27;;;1.15;;
62463;SDS011;48512;48.552;9.380;2024-02-26T01:21:21;2.58;;;1.30;;
62463;SDS011;48512;48.552;9.380;2024-02-26T01:23:47;1.63;;;1.00;;
62463;SDS011;48512;48.552;9.380;2024-02-26T01:26:13;1.20;;;1.10;;
62463;SDS011;48512;48.552;9.380;2024-02-26T01:28:39;1.52;;;1.00;;
62463;SDS011;48512;48.552;9.380;2024-02-26T01:31:05;1.20;;;0.90;;
62463;SDS011;48512;48.552;9.380;2024-02-26T01:33:34;1.60;;;1.00;;
62463;SDS011;48512;48.552;9.380;2024-02-26T01:36:00;1.10;;;1.00;;
62463;SDS011;48512;48.552;9.380;2024-02-26T01:38:26;5.07;;;1.00;;
62463;SDS011;48512;48.552;9.380;2024-02-26T01:40:53;1.50;;;1.00;;
62463;SDS011;48512;48.552;9.380;2024-02-26T01:43:19;1.15;;;0.82;;
62463;SDS011;48512;48.552;9.380;2024-02-26T01:45:45;1.10;;;0.90;;
62463;SDS011;48512;48.552;9.380;2024-02-26T01:48:11;1.25;;;1.00;;
62463;SDS011;48512;48.552;9.380;2024-02-26T01:50:38;1.17;;;0.82;;
62463;SDS011;48512;48.552;9.380;2024-02-26T01:53:05;2.15;;;1.10;;
62463;SDS011;48512;48.552;9.380;2024-02-26T01:55:32;2.17;;;1.20;;
62463;SDS011;48512;48.552;9.380;2024-02-26T01:57:59;1.30;;;1.00;;
62463;SDS011;48512;48.552;9.380;2024-02-26T02:00:25;1.40;;;1.08;;
62463;SDS011;48512;48.552;9.380;2024-02-26T02:02:52;1.17;;;1.00;;
62463;SDS011;48512;48.552;9.380;2024-02-26T02:05:20;1.80;;;1.20;;
62463;SDS011;48512;48.552;9.380;2024-02-26T02:07:47;1.45;;;1.20;;
62463;SDS011;48512;48.552;9.380;2024-02-26T02:10:15;1.27;;;1.15;;
62463;SDS011;48512;48.552;9.380;2024-02-26T02:12:42;1.55;;;1.02;;
62463;SDS011;48512;48.552;9.380;2024-02-26T02:15:09;2.22;;;1.25;;
62463;SDS011;48512;48.552;9.380;2024-02-26T02:17:35;1.58;;;1.10;;
62463;SDS011;48512;48.552;9.380;2024-02-26T02:20:01;1.27;;;0.90;;
62463;SDS011;48512;48.552;9.380;2024-02-26T02:22:28;1.60;;;1.38;;
62463;SDS011;48512;48.552;9.380;2024-02-26T02:24:54;1.58;;;1.02;;
62463;SDS011;48512;48.552;9.380;2024-02-26T02:27:20;0.85;;;0.80;;
62463;SDS011;48512;48.552;9.380;2024-02-26T02:29:46;1.80;;;1.00;;
62463;SDS011;48512;48.552;9.380;2024-02-26T02:32:13;2.42;;;1.10;;
62463;SDS011;48512;48.552;9.380;2024-02-26T02:34:41;2.58;;;1.20;;
62463;SDS011;48512;48.552;9.380;2024-02-26T02:37:07;2.42;;;1.10;;
62463;SDS011;48512;48.552;9.380;2024-02-26T02:39:33;1.45;;;1.20;;
62463;SDS011;48512;48.552;9.380;2024-02-26T02:41:59;1.75;;;1.27;;
62463;SDS011;48512;48.552;9.380;2024-02-26T02:44:25;2.08;;;1.23;;
62463;SDS011;48512;48.552;9.380;2024-02-26T02:46:51;1.58;;;1.15;;
62463;SDS011;48512;48.552;9.380;2024-02-26T02:49:19;2.95;;;1.25;;
62463;SDS011;48512;48.552;9.380;2024-02-26T02:51:45;1.80;;;1.02;;
62463;SDS011;48512;48.552;9.380;2024-02-26T02:54:11;1.10;;;1.00;;
62463;SDS011;48512;48.552;9.380;2024-02-26T02:56:37;1.23;;;1.00;;
62463;SDS011;48512;48.552;9.380;2024-02-26T02:59:03;1.08;;;1.00;;
62463;SDS011;48512;48.552;9.380;2024-02-26T03:01:29;1.15;;;1.00;;
62463;SDS011;48512;48.552;9.380;2024-02-26T03:03:55;1.30;;;1.10;;
62463;SDS011;48512;48.552;9.380;2024-02-26T03:06:21;1.58;;;1.30;;
62463;SDS011;48512;48.552;9.380;2024-02-26T03:08:48;1.95;;;1.23;;
62463;SDS011;48512;48.552;9.380;2024-02-26T03:11:14;1.60;;;1.20;;
62463;SDS011;48512;48.552;9.380;2024-02-26T03:13:43;1.08;;;0.98;;
62463;SDS011;48512;48.552;9.380;2024-02-26T03:16:09;1.13;;;0.90;;
62463;SDS011;48512;48.552;9.380;2024-02-26T03:18:35;1.38;;;1.00;;
62463;SDS011;48512;48.552;9.380;2024-02-26T03:21:04;1.42;;;1.15;;
62463;SDS011;48512;48.552;9.380;2024-02-26T03:23:30;2.00;;;1.20;;
62463;SDS011;48512;48.552;9.380;2024-02-26T03:25:58;1.40;;;1.27;;
62463;SDS011;48512;48.552;9.380;2024-02-26T03:28:24;1.83;;;1.10;;
62463;SDS011;48512;48.552;9.380;2024-02-26T03:30:50;0.98;;;0.88;;
62463;SDS011;48512;48.552;9.380;2024-02-26T03:33:16;1.90;;;1.20;;
62463;SDS011;48512;48.552;9.380;2024-02-26T03:35:42;2.30;;;1.02;;
62463;SDS011;48512;48.552;9.380;2024-02-26T03:38:08;1.48;;;1.10;;
62463;SDS011;48512;48.552;9.380;2024-02-26T03:40:34;2.65;;;1.25;;
62463;SDS011;48512;48.552;9.380;2024-02-26T03:43:00;1.55;;;1.10;;
62463;SDS011;48512;48.552;9.380;2024-02-26T03:45:28;1.35;;;1.10;;
62463;SDS011;48512;48.552;9.380;2024-02-26T03:47:54;2.75;;;1.10;;
62463;SDS011;48512;48.552;9.380;2024-02-26T03:50:20;1.52;;;1.10;;
62463;SDS011;48512;48.552;9.380;2024-02-26T03:52:47;1.10;;;1.00;;
62463;SDS011;48512;48.552;9.380;2024-02-26T03:55:13;2.65;;;1.30;;
62463;SDS011;48512;48.552;9.380;2024-02-26T03:57:39;2.55;;;1.58;;
62463;SDS011;48512;48.552;9.380;2024-02-26T04:00:06;1.17;;;1.08;;
62463;SDS011;48512;48.552;9.380;2024-02-26T04:02:36;2.72;;;1.20;;
62463;SDS011;48512;48.552;9.380;2024-02-26T04:05:02;2.30;;;1.10;;
62463;SDS011;48512;48.552;9.380;2024-02-26T04:07:29;2.00;;;1.40;;
62463;SDS011;48512;48.552;9.380;2024-02-26T04:09:55;1.85;;;1.27;;
62463;SDS011;48512;48.552;9.380;2024-02-26T04:12:21;2.47;;;1.20;;
62463;SDS011;48512;48.552;9.380;2024-02-26T04:14:47;3.83;;;1.55;;
62463;SDS011;48512;48.552;9.380;2024-02-26T04:17:13;2.13;;;1.33;;
62463;SDS011;48512;48.552;9.380;2024-02-26T04:19:39;1.30;;;1.08;;
62463;SDS011;48512;48.552;9.380;2024-02-26T04:22:05;4.97;;;3.05;;
62463;SDS011;48512;48.552;9.380;2024-02-26T04:24:32;8.82;;;4.65;;
62463;SDS011;48512;48.552;9.380;2024-02-26T04:26:58;10.63;;;6.00;;
62463;SDS011;48512;48.552;9.380;2024-02-26T04:29:24;8.20;;;4.20;;
62463;SDS011;48512;48.552;9.380;2024-02-26T04:31:50;1.90;;;1.30;;
62463;SDS011;48512;48.552;9.380;2024-02-26T04:34:16;1.67;;;0.93;;
62463;SDS011;48512;48.552;9.380;2024-02-26T04:36:42;3.55;;;0.90;;
62463;SDS011;48512;48.552;9.380;2024-02-26T04:39:09;1.10;;;1.00;;
62463;SDS011;48512;48.552;9.380;2024-02-26T04:41:35;1.83;;;1.17;;
62463;SDS011;48512;48.552;9.380;2024-02-26T04:44:02;1.20;;;1.08;;
62463;SDS011;48512;48.552;9.380;2024-02-26T04:46:28;1.00;;;0.90;;
62463;SDS011;48512;48.552;9.380;2024-02-26T04:48:54;1.00;;;0.90;;
62463;SDS011;48512;48.552;9.380;2024-02-26T04:51:20;1.85;;;1.20;;
62463;SDS011;48512;48.552;9.380;2024-02-26T04:53:46;1.38;;;1.27;;
62463;SDS011;48512;48.552;9.380;2024-02-26T04:56:12;2.47;;;1.50;;
62463;SDS011;48512;48.552;9.380;2024-02-26T04:58:38;3.63;;;2.20;;
62463;SDS011;48512;48.552;9.380;2024-02-26T05:01:04;2.13;;;1.50;;
62463;SDS011;48512;48.552;9.380;2024-02-26T05:03:30;1.67;;;1.38;;
62463;SDS011;48512;48.552;9.380;2024-02-26T05:05:56;1.42;;;1.10;;
62463;SDS011;48512;48.552;9.380;2024-02-26T05:08:23;1.48;;;1.15;;
62463;SDS011;48512;48.552;9.380;2024-02-26T05:10:49;1.10;;;1.00;;
62463;SDS011;48512;48.552;9.380;2024-02-26T05:13:15;1.65;;;1.30;;
62463;SDS011;48512;48.552;9.380;2024-02-26T05:15:43;2.25;;;1.40;;
62463;SDS011;48512;48.552;9.380;2024-02-26T05:18:12;1.80;;;1.40;;
62463;SDS011;48512;48.552;9.380;2024-02-26T05:20:38;1.65;;;1.27;;
62463;SDS011;48512;48.552;9.380;2024-02-26T05:23:04;5.43;;;2.13;;
62463;SDS011;48512;48.552;9.380;2024-02-26T05:25:31;10.13;;;4.32;;
62463;SDS011;48512;48.552;9.380;2024-02-26T05:27:57;6.55;;;2.75;;
62463;SDS011;48512;48.552;9.380;2024-02-26T05:30:23;4.78;;;1.95;;
62463;SDS011;48512;48.552;9.380;2024-02-26T05:32:49;2.38;;;1.23;;
62463;SDS011;48512;48.552;9.380;2024-02-26T05:35:15;1.67;;;1.20;;
62463;SDS011;48512;48.552;9.380;2024-02-26T05:37:41;1.50;;;1.40;;
62463;SDS011;48512;48.552;9.380;2024-02-26T05:40:08;1.83;;;1.38;;
62463;SDS011;48512;48.552;9.380;2024-02-26T05:42:34;1.50;;;1.30;;
62463;SDS011;48512;48.552;9.380;2024-02-26T05:45:00;2.58;;;1.38;;
62463;SDS011;48512;48.552;9.380;2024-02-26T05:47:34;1.48;;;1.30;;
62463;SDS011;48512;48.552;9.380;2024-02-26T05:50:01;2.83;;;1.50;;
62463;SDS011;48512;48.552;9.380;2024-02-26T05:52:27;2.95;;;1.70;;
62463;SDS011;48512;48.552;9.380;2024-02-26T05:54:57;2.78;;;2.00;;
62463;SDS011;48512;48.552;9.380;2024-02-26T05:57:23;2.58;;;2.38;;
62463;SDS011;48512;48.552;9.380;2024-02-26T05:59:50;1.77;;;1.60;;
62463;SDS011;48512;48.552;9.380;2024-02-26T06:02:16;2.58;;;1.55;;
62463;SDS011;48512;48.552;9.380;2024-02-26T06:04:42;3.33;;;1.80;;
62463;SDS011;48512;48.552;9.380;2024-02-26T06:07:08;2.92;;;1.95;;
62463;SDS011;48512;48.552;9.380;2024-02-26T06:09:34;2.83;;;2.03;;
62463;SDS011;48512;48.552;9.380;2024-02-26T06:12:01;4.65;;;2.33;;
62463;SDS011;48512;48.552;9.380;2024-02-26T06:14:27;3.53;;;2.55;;
62463;SDS011;48512;48.552;9.380;2024-02-26T06:16:53;4.80;;;3.25;;
62463;SDS011;48512;48.552;9.380;2024-02-26T06:19:19;6.00;;;3.53;;
62463;SDS011;48512;48.552;9.380;2024-02-26T06:21:45;4.63;;;2.90;;
62463;SDS011;48512;48.552;9.380;2024-02-26T06:24:11;3.33;;;2.72;;
62463;SDS011;48512;48.552;9.380;2024-02-26T06:26:37;3.88;;;2.40;;
62463;SDS011;48512;48.552;9.380;2024-02-26T06:29:03;4.10;;;2.38;;
62463;SDS011;48512;48.552;9.380;2024-02-26T06:31:29;3.85;;;2.40;;
62463;SDS011;48512;48.552;9.380;2024-02-26T06:33:55;3.50;;;2.10;;
62463;SDS011;48512;48.552;9.380;2024-02-26T06:36:22;3.35;;;2.33;;
62463;SDS011;48512;48.552;9.380;2024-02-26T06:38:48;3.70;;;1.80;;
62463;SDS011;48512;48.552;9.380;2024-02-26T06:41:15;3.20;;;1.38;;
62463;SDS011;48512;48.552;9.380;2024-02-26T06:43:41;3.25;;;1.35;;
62463;SDS011;48512;48.552;9.380;2024-02-26T06:46:07;1.42;;;0.98;;
62463;SDS011;48512;48.552;9.380;2024-02-26T06:48:33;2.22;;;1.58;;
62463;SDS011;48512;48.552;9.380;2024-02-26T06:50:59;2.72;;;1.30;;
62463;SDS011;48512;48.552;9.380;2024-02-26T06:53:25;2.58;;;1.75;;
62463;SDS011;48512;48.552;9.380;2024-02-26T06:55:51;4.85;;;1.80;;
62463;SDS011;48512;48.552;9.380;2024-02-26T06:58:17;2.72;;;2.30;;
62463;SDS011;48512;48.552;9.380;2024-02-26T07:00:43;9.02;;;6.75;;
62463;SDS011;48512;48.552;9.380;2024-02-26T07:03:10;8.65;;;5.60;;
62463;SDS011;48512;48.552;9.380;2024-02-26T07:05:36;3.63;;;3.25;;
62463;SDS011;48512;48.552;9.380;2024-02-26T07:08:02;3.67;;;2.63;;
62463;SDS011;48512;48.552;9.380;2024-02-26T07:10:28;5.03;;;3.67;;
62463;SDS011;48512;48.552;9.380;2024-02-26T07:12:54;8.80;;;4.20;;
62463;SDS011;48512;48.552;9.380;2024-02-26T07:15:20;5.57;;;3.45;;
62463;SDS011;48512;48.552;9.380;2024-02-26T07:17:47;3.72;;;2.90;;
62463;SDS011;48512;48.552;9.380;2024-02-26T07:20:14;4.55;;;2.90;;
62463;SDS011;48512;48.552;9.380;2024-02-26T07:22:40;4.50;;;2.97;;
62463;SDS011;48512;48.552;9.380;2024-02-26T07:25:08;5.10;;;3.22;;
62463;SDS011;48512;48.552;9.380;2024-02-26T07:27:37;4.63;;;2.55;;
62463;SDS011;48512;48.552;9.380;2024-02-26T07:30:04;5.00;;;2.40;;
62463;SDS011;48512;48.552;9.380;2024-02-26T07:32:30;3.88;;;2.40;;
62463;SDS011;48512;48.552;9.380;2024-02-26T07:34:56;3.00;;;2.05;;
62463;SDS011;48512;48.552;9.380;2024-02-26T07:37:22;4.38;;;2.90;;
62463;SDS011;48512;48.552;9.380;2024-02-26T07:39:49;5.53;;;3.60;;
62463;SDS011;48512;48.552;9.380;2024-02-26T07:42:15;5.45;;;3.40;;
62463;SDS011;48512;48.552;9.380;2024-02-26T07:44:41;6.40;;;3.92;;
62463;SDS011;48512;48.552;9.380;2024-02-26T07:47:09;6.57;;;3.90;;
62463;SDS011;48512;48.552;9.380;2024-02-26T07:49:35;6.38;;;3.65;;
62463;SDS011;48512;48.552;9.380;2024-02-26T07:52:01;9.13;;;4.63;;
62463;SDS011;48512;48.552;9.380;2024-02-26T07:54:28;7.13;;;5.03;;
62463;SDS011;48512;48.552;9.380;2024-02-26T07:56:54;7.00;;;4.53;;
62463;SDS011;48512;48.552;9.380;2024-02-26T07:59:20;7.25;;;4.70;;
62463;SDS011;48512;48.552;9.380;2024-02-26T08:01:49;16.23;;;11.75;;
62463;SDS011;48512;48.552;9.380;2024-02-26T08:04:17;12.70;;;8.98;;
62463;SDS011;48512;48.552;9.380;2024-02-26T08:06:43;9.68;;;5.75;;
62463;SDS011;48512;48.552;9.380;2024-02-26T08:09:09;9.02;;;5.70;;
62463;SDS011;48512;48.552;9.380;2024-02-26T08:11:35;9.70;;;5.35;;
62463;SDS011;48512;48.552;9.380;2024-02-26T08:14:01;7.63;;;4.32;;
62463;SDS011;48512;48.552;9.380;2024-02-26T08:16:27;8.48;;;4.35;;
62463;SDS011;48512;48.552;9.380;2024-02-26T08:18:54;5.57;;;3.90;;
62463;SDS011;48512;48.552;9.380;2024-02-26T08:21:21;6.88;;;4.60;;
62463;SDS011;48512;48.552;9.380;2024-02-26T08:23:47;5.75;;;3.95;;
62463;SDS011;48512;48.552;9.380;2024-02-26T08:26:13;9.45;;;5.28;;
62463;SDS011;48512;48.552;9.380;2024-02-26T08:28:39;10.20;;;6.47;;
62463;SDS011;48512;48.552;9.380;2024-02-26T08:31:05;16.05;;;8.75;;
62463;SDS011;48512;48.552;9.380;2024-02-26T08:33:32;14.93;;;9.40;;
62463;SDS011;48512;48.552;9.380;2024-02-26T08:36:03;21.02;;;13.05;;
62463;SDS011;48512;48.552;9.380;2024-02-26T08:38:30;13.10;;;8.68;;
62463;SDS011;48512;48.552;9.380;2024-02-26T08:40:57;8.05;;;5.15;;
62463;SDS011;48512;48.552;9.380;2024-02-26T08:43:23;6.13;;;4.13;;
62463;SDS011;48512;48.552;9.380;2024-02-26T08:45:49;6.95;;;4.90;;
62463;SDS011;48512;48.552;9.380;2024-02-26T08:48:15;7.28;;;4.68;;
62463;SDS011;48512;48.552;9.380;2024-02-26T08:50:41;6.93;;;5.28;;
62463;SDS011;48512;48.552;9.380;2024-02-26T08:53:07;8.40;;;5.72;;
62463;SDS011;48512;48.552;9.380;2024-02-26T08:55:33;9.18;;;5.68;;
62463;SDS011;48512;48.552;9.380;2024-02-26T08:57:59;10.43;;;6.20;;
62463;SDS011;48512;48.552;9.380;2024-02-26T09:00:25;9.32;;;5.60;;
62463;SDS011;48512;48.552;9.380;2024-02-26T09:02:51;9.13;;;5.53;;
62463;SDS011;48512;48.552;9.380;2024-02-26T09:05:17;10.32;;;5.57;;
62463;SDS011;48512;48.552;9.380;2024-02-26T09:07:44;8.23;;;5.57;;
62463;SDS011;48512;48.552;9.380;2024-02-26T09:10:10;8.65;;;5.68;;
62463;SDS011;48512;48.552;9.380;2024-02-26T09:12:36;9.55;;;5.93;;
62463;SDS011;48512;48.552;9.380;2024-02-26T09:15:03;9.15;;;6.32;;
62463;SDS011;48512;48.552;9.380;2024-02-26T09:17:30;18.27;;;8.65;;
62463;SDS011;48512;48.552;9.380;2024-02-26T09:19:56;14.90;;;8.65;;
62463;SDS011;48512;48.552;9.380;2024-02-26T09:22:22;15.13;;;7.45;;
62463;SDS011;48512;48.552;9.380;2024-02-26T09:24:48;15.50;;;8.05;;
62463;SDS011;48512;48.552;9.380;2024-02-26T09:27:16;16.95;;;7.47;;
62463;SDS011;48512;48.552;9.380;2024-02-26T09:29:43;13.15;;;7.40;;
62463;SDS011;48512;48.552;9.380;2024-02-26T09:32:09;11.05;;;5.95;;
62463;SDS011;48512;48.552;9.380;2024-02-26T09:34:35;7.53;;;4.40;;
62463;SDS011;48512;48.552;9.380;2024-02-26T09:37:02;9.50;;;3.83;;
62463;SDS011;48512;48.552;9.380;2024-02-26T09:39:28;7.97;;;4.20;;
62463;SDS011;48512;48.552;9.380;2024-02-26T09:41:54;7.22;;;3.63;;
62463;SDS011;48512;48.552;9.380;2024-02-26T09:44:22;4.50;;;3.30;;
62463;SDS011;48512;48.552;9.380;2024-02-26T09:46:50;4.15;;;3.08;;
62463;SDS011;48512;48.552;9.380;2024-02-26T09:49:21;5.75;;;2.97;;
62463;SDS011;48512;48.552;9.380;2024-02-26T09:51:49;4.78;;;2.88;;
62463;SDS011;48512;48.552;9.380;2024-02-26T09:54:17;7.60;;;3.25;;
62463;SDS011;48512;48.552;9.380;2024-02-26T09:56:43;6.05;;;2.70;;
62463;SDS011;48512;48.552;9.380;2024-02-26T09:59:16;10.02;;;3.55;;
62463;SDS011;48512;48.552;9.380;2024-02-26T10:01:44;4.72;;;3.00;;
62463;SDS011;48512;48.552;9.380;2024-02-26T10:04:12;6.80;;;3.45;;
62463;SDS011;48512;48.552;9.380;2024-02-26T10:06:38;6.30;;;3.17;;
62463;SDS011;48512;48.552;9.380;2024-02-26T10:09:06;5.97;;;2.97;;
62463;SDS011;48512;48.552;9.380;2024-02-26T10:11:35;5.88;;;3.10;;
62463;SDS011;48512;48.552;9.380;2024-02-26T10:14:03;8.80;;;4.10;;
62463;SDS011;48512;48.552;9.380;2024-02-26T10:16:29;5.03;;;3.00;;
62463;SDS011;48512;48.552;9.380;2024-02-26T10:18:56;6.22;;;3.80;;
62463;SDS011;48512;48.552;9.380;2024-02-26T10:21:22;6.13;;;3.85;;
62463;SDS011;48512;48.552;9.380;2024-02-26T10:23:49;6.35;;;4.00;;
62463;SDS011;48512;48.552;9.380;2024-02-26T10:26:16;6.22;;;3.30;;
62463;SDS011;48512;48.552;9.380;2024-02-26T10:28:43;4.93;;;2.95;;
62463;SDS011;48512;48.552;9.380;2024-02-26T10:31:10;5.97;;;3.13;;
62463;SDS011;48512;48.552;9.380;2024-02-26T10:33:37;5.13;;;3.40;;
62463;SDS011;48512;48.552;9.380;2024-02-26T10:36:04;4.78;;;3.22;;
62463;SDS011;48512;48.552;9.380;2024-02-26T10:38:35;7.32;;;4.15;;
62463;SDS011;48512;48.552;9.380;2024-02-26T10:41:03;8.35;;;4.18;;
62463;SDS011;48512;48.552;9.380;2024-02-26T10:43:30;5.13;;;3.85;;
62463;SDS011;48512;48.552;9.380;2024-02-26T10:45:56;5.43;;;3.47;;
62463;SDS011;48512;48.552;9.380;2024-02-26T10:48:23;5.38;;;3.20;;
62463;SDS011;48512;48.552;9.380;2024-02-26T10:50:49;5.30;;;3.00;;
62463;SDS011;48512;48.552;9.380;2024-02-26T10:53:16;4.78;;;3.13;;
62463;SDS011;48512;48.552;9.380;2024-02-26T10:55:49;4.65;;;2.90;;
62463;SDS011;48512;48.552;9.380;2024-02-26T10:58:24;6.10;;;2.90;;
62463;SDS011;48512;48.552;9.380;2024-02-26T11:00:51;4.85;;;2.72;;
62463;SDS011;48512;48.552;9.380;2024-02-26T11:03:18;4.32;;;2.70;;
62463;SDS011;48512;48.552;9.380;2024-02-26T11:05:47;5.72;;;3.28;;
62463;SDS011;48512;48.552;9.380;2024-02-26T11:08:14;4.43;;;2.42;;
62463;SDS011;48512;48.552;9.380;2024-02-26T11:10:46;9.05;;;3.45;;
62463;SDS011;48512;48.552;9.380;2024-02-26T11:13:14;2.72;;;1.83;;
62463;SDS011;48512;48.552;9.380;2024-02-26T11:15:42;4.68;;;2.22;;
62463;SDS011;48512;48.552;9.380;2024-02-26T11:18:09;5.15;;;2.30;;
62463;SDS011;48512;48.552;9.380;2024-02-26T11:20:38;2.67;;;2.05;;
62463;SDS011;48512;48.552;9.380;2024-02-26T11:23:05;4.47;;;2.60;;
62463;SDS011;48512;48.552;9.380;2024-02-26T11:25:32;5.32;;;2.33;;
62463;SDS011;48512;48.552;9.380;2024-02-26T11:28:00;3.65;;;2.17;;
62463;SDS011;48512;48.552;9.380;2024-02-26T11:30:30;5.05;;;2.80;;
62463;SDS011;48512;48.552;9.380;2024-02-26T11:32:59;6.55;;;2.45;;
62463;SDS011;48512;48.552;9.380;2024-02-26T11:35:25;4.50;;;2.10;;
62463;SDS011;48512;48.552;9.380;2024-02-26T11:37:52;2.97;;;2.30;;
62463;SDS011;48512;48.552;9.380;2024-02-26T11:40:20;2.90;;;2.50;;
62463;SDS011;48512;48.552;9.380;2024-02-26T11:42:46;6.03;;;2.80;;
62463;SDS011;48512;48.552;9.380;2024-02-26T11:50:41;5.25;;;2.92;;
62463;SDS011;48512;48.552;9.380;2024-02-26T11:58:48;4.28;;;2.97;;
62463;SDS011;48512;48.552;9.380;2024-02-26T12:04:27;4.35;;;3.00;;
62463;SDS011;48512;48.552;9.380;2024-02-26T12:06:53;4.13;;;2.65;;
62463;SDS011;48512;48.552;9.380;2024-02-26T12:09:35;3.17;;;2.47;;
62463;SDS011;48512;48.552;9.380;2024-02-26T12:14:38;3.78;;;2.33;;
62463;SDS011;48512;48.552;9.380;2024-02-26T12:17:05;3.30;;;2.00;;
62463;SDS011;48512;48.552;9.380;2024-02-26T12:19:35;4.32;;;2.10;;
62463;SDS011;48512;48.552;9.380;2024-02-26T12:22:02;3.80;;;2.40;;
62463;SDS011;48512;48.552;9.380;2024-02-26T12:24:28;3.47;;;2.17;;
62463;SDS011;48512;48.552;9.380;2024-02-26T12:26:54;4.88;;;2.05;;
62463;SDS011;48512;48.552;9.380;2024-02-26T12:29:20;2.47;;;2.00;;
62463;SDS011;48512;48.552;9.380;2024-02-26T12:31:47;33.97;;;8.25;;
62463;SDS011;48512;48.552;9.380;2024-02-26T12:34:13;5.70;;;2.83;;
62463;SDS011;48512;48.552;9.380;2024-02-26T12:36:42;3.80;;;2.13;;
62463;SDS011;48512;48.552;9.380;2024-02-26T12:39:08;3.97;;;2.20;;
62463;SDS011;48512;48.552;9.380;2024-02-26T12:41:35;2.83;;;2.08;;
62463;SDS011;48512;48.552;9.380;2024-02-26T12:44:02;3.30;;;2.10;;
62463;SDS011;48512;48.552;9.380;2024-02-26T12:46:28;2.65;;;1.98;;
62463;SDS011;48512;48.552;9.380;2024-02-26T12:48:57;2.42;;;1.73;;
62463;SDS011;48512;48.552;9.380;2024-02-26T12:51:25;3.92;;;1.80;;
62463;SDS011;48512;48.552;9.380;2024-02-26T12:53:52;3.00;;;1.40;;
62463;SDS011;48512;48.552;9.380;2024-02-26T12:56:21;2.60;;;1.60;;
62463;SDS011;48512;48.552;9.380;2024-02-26T12:58:49;4.55;;;1.70;;
62463;SDS011;48512;48.552;9.380;2024-02-26T13:01:17;3.00;;;1.70;;
62463;SDS011;48512;48.552;9.380;2024-02-26T13:03:45;1.83;;;1.27;;
62463;SDS011;48512;48.552;9.380;2024-02-26T13:06:12;3.67;;;1.40;;
62463;SDS011;48512;48.552;9.380;2024-02-26T13:08:38;4.25;;;1.60;;
62463;SDS011;48512;48.552;9.380;2024-02-26T13:11:04;2.40;;;1.50;;
62463;SDS011;48512;48.552;9.380;2024-02-26T13:13:31;2.08;;;1.73;;
62463;SDS011;48512;48.552;9.380;2024-02-26T13:16:06;4.18;;;1.70;;
62463;SDS011;48512;48.552;9.380;2024-02-26T13:18:34;3.47;;;1.90;;
62463;SDS011;48512;48.552;9.380;2024-02-26T13:23:41;2.53;;;1.75;;
62463;SDS011;48512;48.552;9.380;2024-02-26T13:26:08;2.80;;;1.52;;
62463;SDS011;48512;48.552;9.380;2024-02-26T13:28:34;1.70;;;1.10;;
62463;SDS011;48512;48.552;9.380;2024-02-26T13:31:01;1.58;;;1.23;;
62463;SDS011;48512;48.552;9.380;2024-02-26T13:33:28;1.40;;;1.30;;
62463;SDS011;48512;48.552;9.380;2024-02-26T13:35:55;1.40;;;1.20;;
62463;SDS011;48512;48.552;9.380;2024-02-26T13:38:22;1.73;;;1.40;;
62463;SDS011;48512;48.552;9.380;2024-02-26T13:40:49;1.58;;;1.20;;
62463;SDS011;48512;48.552;9.380;2024-02-26T13:43:15;3.15;;;1.70;;
62463;SDS011;48512;48.552;9.380;2024-02-26T13:45:42;2.45;;;0.52;;
62463;SDS011;48512;48.552;9.380;2024-02-26T13:48:08;2.33;;;0.70;;
62463;SDS011;48512;48.552;9.380;2024-02-26T13:50:38;1.58;;;0.52;;
62463;SDS011;48512;48.552;9.380;2024-02-26T13:53:05;1.33;;;0.60;;
62463;SDS011;48512;48.552;9.380;2024-02-26T13:55:31;1.13;;;0.60;;
62463;SDS011;48512;48.552;9.380;2024-02-26T13:57:58;2.08;;;0.95;;
62463;SDS011;48512;48.552;9.380;2024-02-26T14:00:27;3.00;;;1.60;;
62463;SDS011;48512;48.552;9.380;2024-02-26T14:02:55;3.33;;;2.22;;
62463;SDS011;48512;48.552;9.380;2024-02-26T14:05:21;4.22;;;1.60;;
62463;SDS011;48512;48.552;9.380;2024-02-26T14:07:47;2.50;;;1.83;;
62463;SDS011;48512;48.552;9.380;2024-02-26T14:10:13;3.58;;;1.83;;
62463;SDS011;48512;48.552;9.380;2024-02-26T14:12:39;5.68;;;3.83;;
62463;SDS011;48512;48.552;9.380;2024-02-26T14:15:06;6.97;;;3.50;;
62463;SDS011;48512;48.552;9.380;2024-02-26T14:17:33;14.55;;;5.47;;
62463;SDS011;48512;48.552;9.380;2024-02-26T14:19:59;11.43;;;4.90;;
62463;SDS011;48512;48.552;9.380;2024-02-26T14:22:26;3.03;;;1.75;;
62463;SDS011;48512;48.552;9.380;2024-02-26T14:24:56;3.42;;;1.98;;
62463;SDS011;48512;48.552;9.380;2024-02-26T14:27:23;4.63;;;2.15;;
62463;SDS011;48512;48.552;9.380;2024-02-26T14:29:49;6.82;;;3.53;;
62463;SDS011;48512;48.552;9.380;2024-02-26T14:32:15;16.90;;;6.78;;
62463;SDS011;48512;48.552;9.380;2024-02-26T14:34:41;8.18;;;3.85;;
62463;SDS011;48512;48.552;9.380;2024-02-26T14:37:08;11.32;;;4.93;;
62463;SDS011;48512;48.552;9.380;2024-02-26T14:39:34;9.13;;;4.68;;
62463;SDS011;48512;48.552;9.380;2024-02-26T14:42:00;3.40;;;2.13;;
62463;SDS011;48512;48.552;9.380;2024-02-26T14:44:27;10.30;;;4.90;;
62463;SDS011;48512;48.552;9.380;2024-02-26T14:46:53;2.97;;;1.67;;
62463;SDS011;48512;48.552;9.380;2024-02-26T14:49:19;1.80;;;1.27;;
62463;SDS011;48512;48.552;9.380;2024-02-26T14:51:45;2.58;;;1.73;;
62463;SDS011;48512;48.552;9.380;2024-02-26T14:54:12;1.48;;;1.38;;
62463;SDS011;48512;48.552;9.380;2024-02-26T14:56:38;1.55;;;1.38;;
62463;SDS011;48512;48.552;9.380;2024-02-26T14:59:05;0.95;;;0.70;;
62463;SDS011;48512;48.552;9.380;2024-02-26T15:01:32;2.30;;;1.80;;